createdAt,value
2018-09-26T00:00:27.844Z,2.50
2018-09-26T00:03:02.723Z,2.60
2018-09-26T00:05:32.372Z,2.50
2018-09-26T00:08:02.241Z,2.80
2018-09-26T00:10:40.596Z,2.70
2018-09-26T00:13:14.936Z,2.87
2018-09-26T00:15:47.128Z,3.47
2018-09-26T00:18:16.498Z,4.13
2018-09-26T00:20:45.848Z,3.53
2018-09-26T00:23:14.547Z,3.63
2018-09-26T00:25:43.875Z,3.27
2018-09-26T00:28:17.238Z,2.90
2018-09-26T00:30:47.965Z,3.03
2018-09-26T00:33:19.373Z,3.07
2018-09-26T00:35:49.135Z,2.50
2018-09-26T00:38:19.652Z,3.33
2018-09-26T00:40:49.107Z,2.60
2018-09-26T00:43:18.194Z,2.80
2018-09-26T00:45:47.699Z,2.73
2018-09-26T00:48:19.361Z,2.90
2018-09-26T00:50:48.394Z,2.83
2018-09-26T00:53:19.141Z,2.30
2018-09-26T00:55:48.398Z,2.70
2018-09-26T00:58:17.272Z,2.50
2018-09-26T01:00:46.762Z,2.40
2018-09-26T01:03:16.253Z,2.40
2018-09-26T01:05:45.273Z,2.30
2018-09-26T01:08:14.396Z,2.47
2018-09-26T01:10:45.054Z,2.33
2018-09-26T01:13:13.915Z,2.43
2018-09-26T01:15:44.226Z,3.80
2018-09-26T01:18:13.097Z,2.67
2018-09-26T01:20:43.415Z,2.30
2018-09-26T01:23:13.177Z,2.87
2018-09-26T01:25:44.686Z,2.80
2018-09-26T01:28:14.468Z,2.67
2018-09-26T01:30:43.853Z,2.87
2018-09-26T01:33:13.423Z,2.50
2018-09-26T01:35:42.364Z,2.70
2018-09-26T01:38:12.012Z,2.77
2018-09-26T01:40:41.162Z,3.00
2018-09-26T01:43:09.883Z,2.90
2018-09-26T01:45:39.636Z,2.47
2018-09-26T01:48:08.115Z,2.53
2018-09-26T01:50:37.640Z,2.60
2018-09-26T01:53:06.512Z,2.27
2018-09-26T01:55:35.262Z,2.80
2018-09-26T01:58:05.857Z,2.97
2018-09-26T02:00:35.805Z,2.50
2018-09-26T02:03:05.176Z,2.60
2018-09-26T02:05:37.821Z,2.30
2018-09-26T02:08:07.029Z,2.70
2018-09-26T02:10:40.175Z,2.70
2018-09-26T02:13:08.836Z,2.30
2018-09-26T02:15:39.010Z,2.17
2018-09-26T02:18:08.067Z,2.53
2018-09-26T02:20:37.619Z,2.47
2018-09-26T02:23:06.623Z,2.57
2018-09-26T02:25:36.682Z,3.00
2018-09-26T02:28:06.172Z,2.97
2018-09-26T02:30:36.712Z,2.60
2018-09-26T02:33:05.607Z,2.80
2018-09-26T02:35:34.544Z,2.60
2018-09-26T02:38:04.822Z,2.60
2018-09-26T02:40:33.245Z,2.40
2018-09-26T02:43:02.039Z,2.67
2018-09-26T02:45:31.277Z,2.87
2018-09-26T02:48:00.321Z,3.10
2018-09-26T02:50:29.541Z,3.03
2018-09-26T02:52:59.790Z,2.53
2018-09-26T02:55:29.204Z,2.60
2018-09-26T02:58:07.099Z,2.90
2018-09-26T03:00:36.263Z,2.70
2018-09-26T03:03:05.883Z,2.83
2018-09-26T03:05:36.071Z,2.37
2018-09-26T03:08:05.626Z,3.30
2018-09-26T03:10:35.269Z,2.50
2018-09-26T03:13:04.837Z,2.37
2018-09-26T03:15:34.617Z,2.27
2018-09-26T03:18:03.800Z,2.80
2018-09-26T03:20:33.056Z,2.80
2018-09-26T03:23:02.461Z,2.70
2018-09-26T03:25:31.555Z,2.20
2018-09-26T03:28:01.215Z,2.40
2018-09-26T03:30:57.929Z,2.80
2018-09-26T03:33:53.504Z,2.53
2018-09-26T03:36:24.852Z,2.93
2018-09-26T03:39:06.495Z,2.40
2018-09-26T03:41:38.097Z,2.13
2018-09-26T03:44:07.314Z,2.77
2018-09-26T03:46:35.958Z,2.70
2018-09-26T03:49:05.261Z,2.80
2018-09-26T03:51:33.996Z,3.17
2018-09-26T03:54:04.878Z,3.03
2018-09-26T03:56:50.436Z,2.87
2018-09-26T03:59:24.568Z,3.20
2018-09-26T04:01:53.263Z,3.10
2018-09-26T04:04:24.791Z,3.00
2018-09-26T04:06:55.200Z,3.60
2018-09-26T04:09:24.274Z,3.00
2018-09-26T04:11:53.899Z,2.97
2018-09-26T04:14:23.332Z,2.90
2018-09-26T04:18:04.079Z,3.40
2018-09-26T04:20:33.495Z,3.27
2018-09-26T04:23:02.726Z,3.60
2018-09-26T04:25:32.937Z,3.20
2018-09-26T04:28:02.295Z,2.60
2018-09-26T04:30:31.484Z,2.70
2018-09-26T04:33:00.631Z,4.03
2018-09-26T04:35:29.352Z,2.63
2018-09-26T04:37:59.878Z,2.60
2018-09-26T04:40:28.794Z,3.20
2018-09-26T04:42:58.646Z,2.67
2018-09-26T04:45:29.540Z,3.00
2018-09-26T04:48:08.555Z,3.00
2018-09-26T04:50:38.436Z,3.10
2018-09-26T04:53:13.853Z,2.80
2018-09-26T04:55:48.790Z,2.50
2018-09-26T04:58:31.252Z,2.70
2018-09-26T05:01:08.752Z,2.87
2018-09-26T05:03:38.321Z,3.37
2018-09-26T05:06:07.730Z,3.00
2018-09-26T05:08:37.296Z,3.03
2018-09-26T05:11:12.721Z,3.23
2018-09-26T05:13:44.833Z,2.70
2018-09-26T05:16:25.848Z,2.80
2018-09-26T05:19:13.845Z,3.50
2018-09-26T05:21:53.485Z,3.20
2018-09-26T05:24:22.312Z,3.27
2018-09-26T05:26:54.176Z,2.57
2018-09-26T05:29:35.769Z,3.30
2018-09-26T05:32:04.565Z,3.03
2018-09-26T05:34:37.097Z,2.60
2018-09-26T05:37:12.161Z,2.87
2018-09-26T05:39:40.706Z,2.80
2018-09-26T05:42:09.361Z,3.70
2018-09-26T05:44:40.221Z,2.97
2018-09-26T05:47:10.172Z,2.90
2018-09-26T05:49:40.775Z,3.10
2018-09-26T05:52:22.596Z,3.50
2018-09-26T05:55:00.470Z,3.00
2018-09-26T05:57:29.631Z,3.83
2018-09-26T05:59:57.828Z,3.83
2018-09-26T06:02:27.043Z,3.43
2018-09-26T06:04:55.337Z,3.57
2018-09-26T06:07:25.551Z,3.47
2018-09-26T06:09:54.350Z,4.00
2018-09-26T06:12:26.056Z,3.80
2018-09-26T06:15:05.485Z,4.17
2018-09-26T06:18:22.275Z,3.53
2018-09-26T06:20:51.171Z,2.83
2018-09-26T06:23:22.741Z,3.07
2018-09-26T06:25:51.696Z,3.80
2018-09-26T06:28:20.059Z,3.13
2018-09-26T06:30:49.289Z,3.27
2018-09-26T06:33:23.377Z,3.33
2018-09-26T06:35:54.129Z,3.00
2018-09-26T06:38:26.273Z,3.50
2018-09-26T06:41:02.220Z,3.43
2018-09-26T06:43:32.686Z,3.50
2018-09-26T06:46:01.576Z,3.87
2018-09-26T06:48:29.797Z,4.30
2018-09-26T06:50:58.324Z,3.43
2018-09-26T06:53:27.005Z,3.90
2018-09-26T06:55:57.757Z,4.00
2018-09-26T06:58:26.770Z,3.90
2018-09-26T07:00:55.244Z,3.80
2018-09-26T07:03:30.352Z,3.97
2018-09-26T07:05:58.736Z,3.47
2018-09-26T07:08:37.510Z,3.30
2018-09-26T07:11:18.732Z,3.57
2018-09-26T07:13:47.339Z,3.57
2018-09-26T07:16:16.825Z,3.97
2018-09-26T07:18:51.422Z,3.13
2018-09-26T07:21:29.455Z,3.40
2018-09-26T07:24:04.921Z,3.20
2018-09-26T07:26:37.020Z,3.47
2018-09-26T07:29:46.871Z,3.70
2018-09-26T07:33:04.673Z,3.43
2018-09-26T07:35:35.349Z,3.23
2018-09-26T07:38:13.347Z,3.20
2018-09-26T07:40:45.846Z,3.10
2018-09-26T07:47:52.772Z,3.30
2018-09-26T07:50:45.078Z,3.67
2018-09-26T07:53:33.601Z,2.50
2018-09-26T07:56:08.647Z,2.87
2018-09-26T07:58:40.238Z,3.93
2018-09-26T08:01:10.544Z,3.00
2018-09-26T08:03:42.172Z,2.57
2018-09-26T08:06:11.108Z,3.40
2018-09-26T08:08:42.388Z,2.73
2018-09-26T08:11:17.748Z,2.90
2018-09-26T08:13:46.332Z,1.90
2018-09-26T08:16:15.263Z,1.83
2018-09-26T08:18:43.984Z,2.00
2018-09-26T08:21:36.845Z,1.90
2018-09-26T08:24:06.484Z,1.83
2018-09-26T08:26:35.722Z,2.40
2018-09-26T08:29:05.925Z,1.87
2018-09-26T08:31:35.390Z,2.03
2018-09-26T08:34:07.025Z,1.93
2018-09-26T08:36:36.109Z,2.07
2018-09-26T08:39:08.611Z,1.90
2018-09-26T08:41:39.273Z,2.20
2018-09-26T08:44:10.024Z,2.30
2018-09-26T08:46:42.675Z,2.70
2018-09-26T08:49:29.329Z,2.20
2018-09-26T08:52:13.610Z,2.30
2018-09-26T08:54:53.092Z,2.10
2018-09-26T08:57:26.270Z,2.17
2018-09-26T09:00:09.630Z,2.73
2018-09-26T09:02:45.561Z,2.73
2018-09-26T09:05:54.165Z,2.20
2018-09-26T09:11:09.699Z,2.10
2018-09-26T09:13:38.735Z,1.90
2018-09-26T09:16:11.783Z,1.77
2018-09-26T09:18:43.619Z,1.90
2018-09-26T09:21:13.357Z,1.70
2018-09-26T09:23:45.346Z,1.77
2018-09-26T09:26:16.921Z,2.20
2018-09-26T09:28:45.914Z,1.50
2018-09-26T09:31:15.812Z,1.20
2018-09-26T09:33:45.736Z,1.50
2018-09-26T09:36:14.513Z,1.53
2018-09-26T09:38:43.028Z,1.50
2018-09-26T09:41:12.605Z,1.40
2018-09-26T09:43:45.601Z,1.40
2018-09-26T09:46:15.616Z,1.30
2018-09-26T09:48:44.709Z,1.20
2018-09-26T09:51:17.319Z,1.27
2018-09-26T09:53:46.446Z,1.70
2018-09-26T09:56:20.909Z,1.30
2018-09-26T09:59:24.506Z,1.60
2018-09-26T10:05:24.244Z,1.30
2018-09-26T10:07:54.850Z,2.00
2018-09-26T10:10:27.584Z,1.80
2018-09-26T10:12:56.753Z,1.87
2018-09-26T10:15:28.363Z,1.50
2018-09-26T10:18:31.784Z,1.50
2018-09-26T10:21:02.419Z,1.23
2018-09-26T10:23:31.459Z,1.40
2018-09-26T10:26:00.810Z,1.40
2018-09-26T10:28:31.720Z,1.43
2018-09-26T10:31:12.239Z,1.53
2018-09-26T10:33:45.368Z,1.83
2018-09-26T10:36:43.479Z,1.40
2018-09-26T10:39:53.575Z,1.23
2018-09-26T10:42:23.237Z,1.30
2018-09-26T10:44:55.667Z,1.17
2018-09-26T10:47:23.778Z,1.37
2018-09-26T10:49:55.108Z,1.27
2018-09-26T10:52:26.554Z,1.17
2018-09-26T10:55:10.213Z,1.40
2018-09-26T10:57:38.913Z,1.53
2018-09-26T11:00:09.037Z,1.50
2018-09-26T11:02:39.770Z,1.37
2018-09-26T11:05:10.694Z,1.40
2018-09-26T11:08:15.113Z,1.20
2018-09-26T11:10:46.338Z,1.20
2018-09-26T11:13:16.302Z,1.10
2018-09-26T11:16:23.615Z,1.60
2018-09-26T11:18:54.792Z,1.27
2018-09-26T11:21:40.655Z,1.30
2018-09-26T11:24:10.085Z,1.43
2018-09-26T11:26:50.306Z,1.10
2018-09-26T11:29:23.967Z,1.70
2018-09-26T11:32:33.162Z,1.10
2018-09-26T11:35:16.663Z,1.47
2018-09-26T11:37:46.379Z,1.20
2018-09-26T11:40:44.474Z,1.30
2018-09-26T11:43:25.260Z,9.83
2018-09-26T11:46:16.660Z,1.40
2018-09-26T11:49:10.673Z,1.37
2018-09-26T11:51:39.844Z,1.50
2018-09-26T11:54:10.013Z,1.37
2018-09-26T11:57:09.529Z,1.67
2018-09-26T12:00:10.376Z,1.37
2018-09-26T12:02:53.213Z,1.80
2018-09-26T12:05:44.333Z,1.80
2018-09-26T12:08:52.491Z,1.30
2018-09-26T12:12:08.840Z,1.10
2018-09-26T12:15:27.488Z,1.10
2018-09-26T12:17:58.266Z,1.50
2018-09-26T12:20:36.112Z,1.20
2018-09-26T12:23:26.165Z,1.10
2018-09-26T12:25:58.009Z,1.50
2018-09-26T12:28:28.644Z,1.17
2018-09-26T12:30:57.363Z,1.20
2018-09-26T12:34:06.845Z,0.90
2018-09-26T12:37:05.308Z,1.50
2018-09-26T12:39:41.368Z,1.23
2018-09-26T12:42:10.320Z,1.50
2018-09-26T12:45:19.291Z,1.20
2018-09-26T12:47:53.406Z,1.73
2018-09-26T12:50:31.185Z,1.70
2018-09-26T12:53:29.773Z,1.10
2018-09-26T12:56:28.575Z,1.20
2018-09-26T12:59:04.145Z,1.70
2018-09-26T13:01:45.341Z,1.63
2018-09-26T13:04:15.213Z,1.20
2018-09-26T13:07:06.525Z,2.20
2018-09-26T13:09:34.875Z,1.40
2018-09-26T13:12:05.786Z,1.73
2018-09-26T13:14:53.057Z,1.63
2018-09-26T13:17:49.528Z,1.23
2018-09-26T13:20:40.808Z,1.50
2018-09-26T13:23:11.909Z,2.20
2018-09-26T13:25:41.247Z,1.37
2018-09-26T13:28:13.165Z,2.00
2018-09-26T13:30:49.081Z,1.50
2018-09-26T13:33:18.724Z,6.40
2018-09-26T13:35:50.441Z,3.30
2018-09-26T13:38:49.462Z,4.60
2018-09-26T13:41:25.744Z,1.47
2018-09-26T13:43:54.160Z,1.70
2018-09-26T13:46:35.689Z,1.63
2018-09-26T13:49:29.324Z,2.70
2018-09-26T13:52:06.220Z,1.70
2018-09-26T13:54:39.671Z,1.50
2018-09-26T13:57:34.742Z,2.30
2018-09-26T14:00:24.145Z,1.67
2018-09-26T14:03:19.544Z,1.80
2018-09-26T14:06:11.413Z,1.80
2018-09-26T14:08:58.823Z,1.90
2018-09-26T14:12:09.077Z,2.37
2018-09-26T14:18:44.667Z,3.37
2018-09-26T14:22:01.425Z,1.40
2018-09-26T14:24:49.096Z,1.40
2018-09-26T14:27:39.588Z,1.70
2018-09-26T14:30:31.329Z,1.43
2018-09-26T14:33:06.542Z,1.50
2018-09-26T14:35:53.393Z,1.40
2018-09-26T14:38:45.746Z,1.30
2018-09-26T14:41:15.422Z,1.40
2018-09-26T14:43:52.367Z,1.37
2018-09-26T14:49:17.457Z,1.43
2018-09-26T14:51:53.490Z,1.60
2018-09-26T14:54:31.848Z,1.63
2018-09-26T14:57:06.742Z,1.23
2018-09-26T14:59:41.213Z,3.67
2018-09-26T15:02:11.055Z,1.13
2018-09-26T15:04:49.298Z,1.53
2018-09-26T15:07:20.495Z,1.57
2018-09-26T15:09:58.119Z,1.40
2018-09-26T15:12:34.524Z,1.67
2018-09-26T15:15:09.467Z,1.30
2018-09-26T15:17:43.964Z,1.13
2018-09-26T15:20:13.718Z,1.57
2018-09-26T15:22:42.743Z,1.47
2018-09-26T15:25:11.253Z,1.30
2018-09-26T15:27:44.105Z,1.30
2018-09-26T15:30:34.166Z,1.50
2018-09-26T15:33:13.617Z,1.10
2018-09-26T15:35:51.268Z,2.30
2018-09-26T15:38:33.169Z,1.50
2018-09-26T15:41:21.045Z,1.77
2018-09-26T15:43:54.672Z,1.10
2018-09-26T15:49:13.203Z,1.50
2018-09-26T15:51:42.268Z,1.40
2018-09-26T15:54:13.415Z,1.27
2018-09-26T15:56:42.277Z,9.10
2018-09-26T15:59:32.531Z,1.80
2018-09-26T16:02:03.778Z,1.67
2018-09-26T16:05:36.360Z,1.80
2018-09-26T16:08:06.857Z,1.37
2018-09-26T16:11:19.890Z,1.60
2018-09-26T16:13:48.700Z,1.50
2018-09-26T16:16:17.972Z,1.80
2018-09-26T16:19:02.886Z,1.30
2018-09-26T16:21:50.891Z,1.57
2018-09-26T16:24:23.745Z,1.70
2018-09-26T16:30:22.268Z,1.50
2018-09-26T16:32:57.715Z,1.10
2018-09-26T16:35:36.025Z,1.30
2018-09-26T16:38:08.493Z,1.67
2018-09-26T16:40:46.252Z,1.57
2018-09-26T16:43:26.618Z,1.90
2018-09-26T16:46:34.562Z,1.63
2018-09-26T16:49:05.947Z,1.53
2018-09-26T16:51:36.205Z,1.60
2018-09-26T16:54:05.914Z,2.07
2018-09-26T16:56:44.474Z,1.70
2018-09-26T16:59:29.707Z,2.20
2018-09-26T17:01:59.521Z,1.93
2018-09-26T17:05:00.318Z,1.50
2018-09-26T17:08:02.570Z,2.07
2018-09-26T17:10:46.815Z,2.07
2018-09-26T17:13:56.100Z,2.37
2018-09-26T17:16:39.313Z,2.30
2018-09-26T17:19:12.883Z,2.87
2018-09-26T17:21:43.773Z,2.27
2018-09-26T17:24:12.479Z,2.07
2018-09-26T17:26:44.617Z,2.20
2018-09-26T17:29:18.466Z,1.50
2018-09-26T17:31:57.716Z,1.80
2018-09-26T17:34:26.801Z,2.00
2018-09-26T17:36:55.888Z,1.87
2018-09-26T17:39:25.687Z,2.07
2018-09-26T17:41:57.833Z,2.90
2018-09-26T17:44:27.418Z,2.17
2018-09-26T17:46:57.246Z,2.30
2018-09-26T17:49:42.223Z,7.90
2018-09-26T17:52:11.253Z,4.30
2018-09-26T17:54:43.405Z,2.57
2018-09-26T17:57:12.516Z,3.57
2018-09-26T17:59:44.749Z,2.63
2018-09-26T18:02:27.316Z,2.13
2018-09-26T18:05:11.982Z,2.13
2018-09-26T18:07:45.216Z,2.23
2018-09-26T18:10:16.303Z,2.53
2018-09-26T18:12:46.379Z,2.50
2018-09-26T18:15:16.193Z,2.83
2018-09-26T18:17:54.385Z,3.17
2018-09-26T18:20:42.017Z,3.00
2018-09-26T18:23:11.956Z,2.37
2018-09-26T18:25:47.096Z,2.97
2018-09-26T18:28:26.430Z,3.00
2018-09-26T18:33:05.080Z,2.70
2018-09-26T18:36:21.794Z,2.80
2018-09-26T18:38:52.614Z,2.63
2018-09-26T18:41:22.938Z,2.80
2018-09-26T18:43:54.588Z,3.00
2018-09-26T18:46:25.228Z,2.57
2018-09-26T18:49:10.117Z,2.80
2018-09-26T18:51:44.648Z,3.50
2018-09-26T18:54:20.640Z,2.53
2018-09-26T18:56:53.279Z,2.97
2018-09-26T18:59:23.209Z,2.90
2018-09-26T19:02:13.271Z,2.90
2018-09-26T19:04:59.665Z,2.70
2018-09-26T19:07:34.321Z,3.10
2018-09-26T19:10:09.553Z,3.23
2018-09-26T19:12:42.256Z,3.20
2018-09-26T19:15:26.522Z,2.90
2018-09-26T19:18:25.701Z,3.13
2018-09-26T19:21:04.241Z,2.90
2018-09-26T19:23:57.141Z,3.30
2018-09-26T19:26:31.210Z,3.43
2018-09-26T19:29:12.045Z,2.63
2018-09-26T19:31:47.689Z,3.07
2018-09-26T19:34:28.469Z,3.07
2018-09-26T19:37:20.775Z,3.40
2018-09-26T19:39:56.438Z,3.50
2018-09-26T19:46:12.190Z,3.40
2018-09-26T19:48:42.936Z,3.33
2018-09-26T19:51:34.755Z,4.17
2018-09-26T19:54:24.166Z,5.70
2018-09-26T19:56:54.926Z,4.00
2018-09-26T19:59:26.106Z,3.00
2018-09-26T20:02:21.014Z,3.27
2018-09-26T20:04:51.097Z,3.20
2018-09-26T20:07:22.778Z,3.33
2018-09-26T20:09:55.406Z,3.53
2018-09-26T20:12:28.245Z,3.43
2018-09-26T20:15:20.462Z,3.60
2018-09-26T20:17:51.253Z,3.70
2018-09-26T20:20:24.828Z,3.23
2018-09-26T20:22:54.442Z,3.50
2018-09-26T20:25:26.159Z,3.27
2018-09-26T20:27:57.083Z,3.90
2018-09-26T20:30:28.505Z,4.10
2018-09-26T20:33:01.179Z,4.57
2018-09-26T20:35:30.909Z,4.30
2018-09-26T20:37:59.619Z,3.57
2018-09-26T20:40:32.158Z,3.60
2018-09-26T20:43:12.712Z,2.87
2018-09-26T20:45:42.304Z,3.17
2018-09-26T20:48:21.071Z,3.17
2018-09-26T20:54:25.799Z,3.00
2018-09-26T20:56:58.281Z,3.03
2018-09-26T20:59:36.693Z,3.00
2018-09-26T21:02:31.680Z,3.37
2018-09-26T21:05:09.454Z,3.20
2018-09-26T21:07:40.136Z,3.40
2018-09-26T21:11:41.393Z,3.70
2018-09-26T21:14:16.058Z,4.10
2018-09-26T21:16:47.581Z,3.73
2018-09-26T21:19:31.801Z,3.50
2018-09-26T21:22:20.810Z,3.50
2018-09-26T21:25:03.007Z,3.50
2018-09-26T21:27:36.757Z,3.80
2018-09-26T21:30:07.436Z,4.03
2018-09-26T21:32:39.570Z,3.60
2018-09-26T21:35:09.175Z,3.90
2018-09-26T21:37:40.272Z,3.20
2018-09-26T21:40:12.287Z,3.10
2018-09-26T21:42:46.349Z,2.60
2018-09-26T21:45:17.910Z,2.97
2018-09-26T21:47:48.245Z,3.13
2018-09-26T21:50:17.198Z,2.80
2018-09-26T21:52:46.751Z,3.17
2018-09-26T21:55:15.408Z,3.53
2018-09-26T21:57:45.274Z,3.33
2018-09-26T22:00:15.562Z,3.20
2018-09-26T22:02:43.917Z,3.63
2018-09-26T22:05:12.600Z,3.70
2018-09-26T22:07:55.381Z,3.80
2018-09-26T22:10:47.966Z,3.67
2018-09-26T22:13:29.207Z,3.57
2018-09-26T22:15:59.612Z,3.87
2018-09-26T22:18:28.830Z,4.03
2018-09-26T22:21:00.973Z,3.70
2018-09-26T22:23:33.400Z,4.20
2018-09-26T22:26:05.647Z,4.27
2018-09-26T22:28:36.323Z,4.50
2018-09-26T22:31:05.322Z,4.37
2018-09-26T22:33:34.671Z,4.23
2018-09-26T22:36:03.719Z,4.50
2018-09-26T22:38:33.897Z,3.90
2018-09-26T22:41:04.707Z,4.33
2018-09-26T22:43:34.637Z,4.17
2018-09-26T22:46:04.380Z,3.90
2018-09-26T22:48:37.058Z,3.90
2018-09-26T22:51:07.102Z,3.90
2018-09-26T22:53:36.381Z,4.57
2018-09-26T22:56:07.337Z,4.17
2018-09-26T22:58:37.743Z,4.10
2018-09-26T23:01:07.037Z,3.80
2018-09-26T23:03:37.704Z,4.27
2018-09-26T23:06:07.247Z,4.13
2018-09-26T23:08:39.952Z,4.40
2018-09-26T23:11:14.263Z,4.10
2018-09-26T23:13:43.715Z,4.10
2018-09-26T23:16:13.870Z,4.13
2018-09-26T23:18:45.148Z,4.50
2018-09-26T23:21:14.100Z,3.63
2018-09-26T23:23:43.503Z,3.60
2018-09-26T23:26:16.197Z,4.07
2018-09-26T23:28:46.197Z,3.53
2018-09-26T23:31:16.521Z,3.53
2018-09-26T23:33:46.964Z,3.50
2018-09-26T23:36:18.538Z,4.03
2018-09-26T23:38:48.444Z,4.00
2018-09-26T23:41:17.652Z,4.20
2018-09-26T23:43:47.452Z,3.77
2018-09-26T23:46:19.092Z,3.80
2018-09-26T23:48:48.605Z,4.17
2018-09-26T23:51:18.824Z,4.23
2018-09-26T23:53:50.573Z,3.83
2018-09-26T23:56:21.713Z,4.07
2018-09-26T23:58:51.621Z,3.80
